Time;durP1;ratioP1;P1;durP2;ratioP2;P2;SDS_P1;SDS_P2;PMS_P1;PMS_P2;Temp;Humidity;BMP_temperature;BMP_pressure;BME280_temperature;BME280_humidity;BME280_pressure;Samples;Min_cycle;Max_cycle;Signal;HPM_P1;HPM_P2
2021/06/06 00:00:53;;;;;;;6.10;3.22;;;16.20;98.90;;;;;;6123313;23;20002;-71
2021/06/06 00:03:21;;;;;;;5.70;3.72;;;16.20;99.30;;;;;;6125391;23;20085;-71
2021/06/06 00:05:57;;;;;;;4.78;3.22;;;16.20;99.60;;;;;;6124787;23;20013;-71
2021/06/06 00:08:25;;;;;;;5.00;3.70;;;16.10;99.90;;;;;;6124865;23;20006;-71
2021/06/06 00:10:54;;;;;;;4.47;4.07;;;16.00;99.90;;;;;;6124617;23;19998;-71
2021/06/06 00:13:21;;;;;;;4.43;3.87;;;16.00;99.90;;;;;;6125059;23;20002;-71
2021/06/06 00:15:47;;;;;;;5.63;4.57;;;16.00;99.90;;;;;;6124802;23;20009;-71
2021/06/06 00:18:13;;;;;;;7.90;4.35;;;16.00;99.90;;;;;;6125085;23;20005;-71
2021/06/06 00:20:41;;;;;;;6.05;4.20;;;15.90;99.90;;;;;;6124731;23;20037;-72
2021/06/06 00:23:07;;;;;;;5.70;4.00;;;15.90;99.90;;;;;;6124794;23;20025;-71
2021/06/06 00:25:34;;;;;;;4.95;4.43;;;16.00;99.90;;;;;;6124978;23;20002;-71
2021/06/06 00:28:01;;;;;;;4.35;3.95;;;16.00;99.90;;;;;;6125066;23;20013;-71
2021/06/06 00:30:27;;;;;;;4.88;4.22;;;16.00;99.90;;;;;;6124704;23;20427;-71
2021/06/06 00:32:53;;;;;;;5.47;4.20;;;16.00;99.90;;;;;;6124561;23;20021;-71
2021/06/06 00:35:19;;;;;;;4.75;4.35;;;15.90;99.90;;;;;;6125089;23;20029;-71
2021/06/06 00:37:45;;;;;;;5.32;4.20;;;15.90;99.90;;;;;;6124735;23;20005;-71
2021/06/06 00:40:17;;;;;;;5.22;4.25;;;15.90;99.90;;;;;;6124586;23;20005;-71
2021/06/06 00:42:44;;;;;;;8.48;4.40;;;15.90;99.90;;;;;;6124855;23;19998;-71
2021/06/06 00:45:13;;;;;;;5.00;4.50;;;16.00;99.90;;;;;;6124638;23;20090;-71
2021/06/06 00:47:39;;;;;;;4.78;4.38;;;16.00;99.90;;;;;;6125097;23;20363;-71
2021/06/06 00:50:09;;;;;;;4.78;4.35;;;15.90;99.90;;;;;;6126829;23;20005;-71
2021/06/06 00:52:36;;;;;;;7.82;5.00;;;15.90;99.90;;;;;;6126653;23;20044;-71
2021/06/06 00:55:07;;;;;;;4.68;4.28;;;15.90;99.90;;;;;;6126817;23;20373;-71
2021/06/06 00:57:34;;;;;;;5.15;4.50;;;16.00;99.90;;;;;;6126631;23;20421;-71
2021/06/06 01:00:13;;;;;;;4.72;4.18;;;15.90;99.90;;;;;;6126810;23;20081;-71
2021/06/06 01:02:40;;;;;;;4.60;4.20;;;15.90;99.90;;;;;;6126598;23;20005;-72
2021/06/06 01:05:35;;;;;;;5.70;3.90;;;15.90;99.90;;;;;;6126446;23;20002;-71
2021/06/06 01:08:03;;;;;;;4.93;4.25;;;15.90;99.90;;;;;;6118440;23;20319;-71
2021/06/06 01:45:27;;;;;;;5.90;4.03;;;16.00;99.90;;;;;;6154228;23;20054;-69
2021/06/06 01:47:58;;;;;;;4.80;4.20;;;16.00;99.90;;;;;;6185296;23;20009;-69
2021/06/06 01:50:47;;;;;;;4.60;3.90;;;16.00;99.90;;;;;;6185484;23;20001;-69
2021/06/06 01:53:15;;;;;;;7.43;4.43;;;16.00;99.90;;;;;;6185537;23;20008;-69
2021/06/06 01:55:45;;;;;;;4.22;3.83;;;16.00;99.90;;;;;;6185131;23;20092;-69
2021/06/06 01:58:12;;;;;;;4.32;3.95;;;16.00;99.90;;;;;;6185479;23;20072;-69
2021/06/06 02:00:42;;;;;;;4.88;4.38;;;16.00;99.90;;;;;;6184824;23;20392;-71
2021/06/06 02:03:08;;;;;;;4.47;4.07;;;16.00;99.90;;;;;;6185549;23;20001;-69
2021/06/06 02:05:33;;;;;;;8.05;4.22;;;16.10;99.90;;;;;;6185306;23;20316;-69
2021/06/06 02:08:03;;;;;;;6.10;4.22;;;16.10;99.90;;;;;;6185584;23;20027;-69
2021/06/06 02:10:50;;;;;;;4.85;4.03;;;16.10;99.90;;;;;;6185517;23;20337;-69
2021/06/06 02:13:24;;;;;;;4.85;3.67;;;16.10;99.90;;;;;;6185586;23;20009;-69
2021/06/06 02:15:53;;;;;;;4.15;3.75;;;16.10;99.90;;;;;;6184943;23;20040;-69
2021/06/06 02:18:19;;;;;;;11.52;4.10;;;16.10;99.90;;;;;;6185572;23;20329;-69
2021/06/06 02:20:48;;;;;;;4.63;4.10;;;16.10;99.90;;;;;;6184876;23;19998;-69
2021/06/06 02:23:18;;;;;;;5.03;4.22;;;16.10;99.90;;;;;;6185490;23;20005;-69
2021/06/06 02:25:44;;;;;;;4.10;3.78;;;16.10;99.90;;;;;;6184802;23;20005;-69
2021/06/06 02:28:19;;;;;;;5.10;3.83;;;16.10;99.90;;;;;;6185534;23;20007;-69
2021/06/06 02:31:15;;;;;;;4.60;4.20;;;16.00;99.90;;;;;;6184895;23;20048;-69
2021/06/06 02:33:54;;;;;;;4.35;3.95;;;16.10;99.90;;;;;;6184954;23;20332;-69
2021/06/06 02:36:21;;;;;;;4.85;4.20;;;16.10;99.90;;;;;;6158452;23;20017;-69
2021/06/06 02:38:47;;;;;;;3.97;3.58;;;16.00;99.90;;;;;;6184960;23;19997;-69
2021/06/06 02:41:16;;;;;;;4.22;3.83;;;16.00;99.90;;;;;;6158471;23;20055;-69
2021/06/06 02:44:08;;;;;;;5.15;4.32;;;16.00;99.90;;;;;;6185140;23;20001;-69
2021/06/06 02:46:37;;;;;;;5.25;4.20;;;15.90;99.90;;;;;;6111830;23;20022;-69
2021/06/06 02:49:11;;;;;;;8.48;4.10;;;15.90;99.90;;;;;;6125779;23;19998;-69
2021/06/06 02:51:57;;;;;;;4.65;4.25;;;15.90;99.90;;;;;;6125616;23;20122;-69
2021/06/06 02:54:34;;;;;;;4.28;3.63;;;15.80;99.90;;;;;;6125729;23;20033;-69
2021/06/06 02:57:07;;;;;;;4.60;4.10;;;15.80;99.90;;;;;;6125696;23;20014;-69
2021/06/06 02:59:57;;;;;;;3.72;3.42;;;15.80;99.90;;;;;;6125644;23;20002;-69
2021/06/06 03:02:29;;;;;;;3.75;3.42;;;15.80;99.90;;;;;;6126005;23;20017;-69
2021/06/06 03:05:00;;;;;;;4.30;3.90;;;15.80;99.90;;;;;;6125443;23;20002;-69
2021/06/06 03:07:32;;;;;;;7.07;3.60;;;15.80;99.90;;;;;;6125665;23;20008;-69
2021/06/06 03:09:58;;;;;;;3.88;3.42;;;15.80;99.90;;;;;;6125744;23;20009;-69
2021/06/06 03:12:26;;;;;;;5.20;3.33;;;15.80;99.90;;;;;;6125588;23;20029;-69
2021/06/06 03:14:53;;;;;;;4.25;3.58;;;15.80;99.90;;;;;;6125577;23;20084;-69
2021/06/06 03:17:32;;;;;;;5.20;3.58;;;15.80;99.90;;;;;;6125549;23;20002;-69
2021/06/06 03:20:01;;;;;;;3.10;2.85;;;15.90;99.90;;;;;;6125453;23;20009;-69
2021/06/06 03:22:34;;;;;;;3.78;3.45;;;16.00;99.90;;;;;;6125533;23;20449;-69
2021/06/06 03:25:42;;;;;;;3.53;3.20;;;16.00;99.90;;;;;;6123939;23;20378;-69
2021/06/06 03:28:10;;;;;;;5.45;3.28;;;16.10;99.90;;;;;;6125482;23;20371;-69
2021/06/06 03:30:41;;;;;;;5.75;4.15;;;16.30;99.90;;;;;;6123700;23;20498;-69
2021/06/06 03:33:14;;;;;;;3.50;3.20;;;16.30;99.90;;;;;;6125427;23;20010;-69
2021/06/06 03:35:41;;;;;;;4.40;3.05;;;16.50;99.90;;;;;;6125303;23;20009;-69
2021/06/06 03:38:07;;;;;;;4.13;3.10;;;16.90;99.70;;;;;;6125286;23;20502;-69
2021/06/06 03:40:37;;;;;;;5.47;3.05;;;17.50;96.80;;;;;;6125322;23;20333;-69
2021/06/06 03:43:04;;;;;;;2.83;2.63;;;17.90;93.40;;;;;;6125150;23;20081;-69
2021/06/06 03:45:30;;;;;;;4.22;2.65;;;18.40;90.50;;;;;;6142130;23;20237;-69
2021/06/06 03:47:56;;;;;;;4.68;2.83;;;18.70;86.40;;;;;;6154460;23;20253;-69
2021/06/06 03:50:24;;;;;;;2.90;2.70;;;19.20;82.10;;;;;;6154641;23;20441;-69
2021/06/06 03:52:50;;;;;;;3.25;2.65;;;19.60;79.10;;;;;;6154477;23;20056;-69
2021/06/06 03:55:17;;;;;;;2.78;2.58;;;19.80;76.70;;;;;;6154408;23;20009;-69
2021/06/06 03:57:43;;;;;;;6.25;2.30;;;20.20;74.90;;;;;;6154377;23;20376;-69
2021/06/06 04:00:16;;;;;;;4.47;2.45;;;20.50;71.30;;;;;;6154427;23;20059;-69
2021/06/06 04:02:43;;;;;;;2.67;2.30;;;20.80;69.20;;;;;;6154500;23;20331;-69
2021/06/06 04:05:10;;;;;;;2.55;1.80;;;21.20;68.40;;;;;;6154408;23;20005;-69
2021/06/06 04:07:36;;;;;;;2.65;2.05;;;21.50;67.20;;;;;;6154569;23;20028;-69
2021/06/06 04:10:04;;;;;;;2.90;2.10;;;21.80;64.50;;;;;;6154389;23;20433;-69
2021/06/06 04:12:30;;;;;;;3.97;2.08;;;22.10;62.90;;;;;;6154711;23;20006;-69
2021/06/06 04:14:56;;;;;;;2.72;2.50;;;22.30;62.60;;;;;;6154097;23;20072;-69
2021/06/06 04:17:22;;;;;;;2.50;2.30;;;22.50;61.10;;;;;;6154360;23;20005;-69
2021/06/06 04:19:47;;;;;;;2.88;2.25;;;22.70;60.00;;;;;;6154151;23;20132;-69
2021/06/06 04:22:13;;;;;;;3.35;2.10;;;23.00;59.60;;;;;;6154070;23;20029;-69
2021/06/06 04:24:39;;;;;;;2.20;2.00;;;23.20;58.90;;;;;;6128309;23;20008;-69
2021/06/06 04:27:05;;;;;;;6.40;2.28;;;23.40;58.30;;;;;;6154102;23;20002;-69
2021/06/06 04:29:31;;;;;;;2.42;2.17;;;23.70;57.60;;;;;;6154704;23;20029;-69
2021/06/06 04:31:57;;;;;;;3.13;2.70;;;23.80;57.00;;;;;;6154106;23;19997;-70
2021/06/06 04:34:23;;;;;;;2.42;2.22;;;24.00;57.10;;;;;;6154715;23;20010;-70
2021/06/06 04:36:49;;;;;;;2.53;2.33;;;24.20;56.60;;;;;;6154021;23;20016;-70
2021/06/06 04:39:16;;;;;;;8.77;2.65;;;24.20;56.90;;;;;;6154474;23;20032;-70
2021/06/06 04:41:41;;;;;;;2.67;2.47;;;24.40;56.20;;;;;;6154392;23;20040;-70
2021/06/06 04:44:07;;;;;;;3.00;2.70;;;24.50;56.00;;;;;;6153851;23;20009;-70
2021/06/06 04:46:33;;;;;;;3.33;2.70;;;24.70;56.50;;;;;;6154479;23;20009;-70
2021/06/06 04:48:59;;;;;;;3.45;2.75;;;24.90;55.70;;;;;;6154275;23;20077;-70
2021/06/06 04:51:25;;;;;;;3.10;2.72;;;25.10;55.30;;;;;;6154243;23;20426;-70
2021/06/06 04:53:53;;;;;;;3.47;2.60;;;25.40;54.60;;;;;;6153998;23;20006;-70
2021/06/06 04:56:22;;;;;;;3.72;2.95;;;25.60;54.10;;;;;;6154291;23;20342;-70
2021/06/06 04:58:49;;;;;;;3.53;3.22;;;25.80;54.10;;;;;;6154103;23;20002;-70
2021/06/06 05:01:15;;;;;;;6.53;2.88;;;25.90;53.40;;;;;;6154044;23;20076;-70
2021/06/06 05:03:41;;;;;;;4.22;3.50;;;26.00;53.70;;;;;;6154583;23;20087;-70
2021/06/06 05:06:07;;;;;;;3.20;2.90;;;26.20;53.40;;;;;;6153930;23;20002;-70
2021/06/06 05:08:32;;;;;;;3.20;2.90;;;26.30;52.80;;;;;;6154581;23;20001;-70
2021/06/06 05:10:59;;;;;;;3.00;2.72;;;26.50;52.40;;;;;;6153823;23;20010;-70
2021/06/06 05:13:25;;;;;;;4.15;2.63;;;26.50;52.40;;;;;;6154106;23;20005;-70
2021/06/06 05:15:53;;;;;;;2.88;2.60;;;26.50;52.10;;;;;;6154033;23;20337;-70
2021/06/06 05:18:20;;;;;;;4.65;3.28;;;26.70;51.90;;;;;;6154225;23;19998;-70
2021/06/06 05:20:48;;;;;;;3.03;2.70;;;26.80;51.70;;;;;;6153805;23;20005;-70
2021/06/06 05:23:15;;;;;;;3.85;2.70;;;27.00;51.90;;;;;;6154161;23;20029;-70
2021/06/06 05:25:41;;;;;;;2.85;2.65;;;27.00;51.30;;;;;;6153893;23;20438;-70
2021/06/06 05:28:13;;;;;;;5.07;2.63;;;27.00;51.40;;;;;;6154276;23;20005;-70
2021/06/06 05:30:40;;;;;;;2.25;2.05;;;27.20;51.20;;;;;;6154380;23;20014;-70
2021/06/06 05:33:06;;;;;;;2.60;2.40;;;27.40;50.40;;;;;;6154349;23;20029;-70
2021/06/06 05:35:34;;;;;;;4.55;2.83;;;27.40;51.20;;;;;;6154924;23;20072;-70
2021/06/06 05:38:00;;;;;;;3.13;2.65;;;27.60;50.70;;;;;;6155759;23;20143;-70
2021/06/06 05:40:29;;;;;;;3.63;2.75;;;27.50;49.90;;;;;;6156211;23;20345;-70
2021/06/06 05:42:55;;;;;;;3.42;2.90;;;27.50;50.30;;;;;;6155707;23;20381;-70
2021/06/06 05:45:23;;;;;;;2.78;2.58;;;27.50;50.30;;;;;;6155485;23;20025;-70
2021/06/06 05:47:50;;;;;;;4.78;2.58;;;27.50;50.30;;;;;;6155933;23;20076;-70
2021/06/06 05:50:20;;;;;;;4.00;2.67;;;27.60;50.00;;;;;;6129662;23;20374;-70
2021/06/06 05:52:46;;;;;;;6.50;2.80;;;27.70;50.30;;;;;;6155560;23;20084;-70
2021/06/06 05:55:13;;;;;;;5.40;3.00;;;27.70;49.90;;;;;;6155918;23;20128;-70
2021/06/06 05:57:39;;;;;;;3.80;3.20;;;27.70;50.10;;;;;;6155514;23;20342;-70
2021/06/06 06:00:07;;;;;;;4.25;2.90;;;27.50;49.90;;;;;;6155550;23;19997;-70
2021/06/06 06:02:33;;;;;;;4.40;3.33;;;27.10;50.80;;;;;;6155736;23;20010;-70
2021/06/06 06:04:58;;;;;;;4.70;3.60;;;26.60;52.10;;;;;;6155455;23;20088;-70
2021/06/06 06:07:24;;;;;;;5.90;3.53;;;26.80;51.80;;;;;;6155555;23;20056;-70
2021/06/06 06:09:50;;;;;;;3.45;3.15;;;26.50;51.80;;;;;;6155514;23;20002;-70
2021/06/06 06:12:16;;;;;;;4.63;3.80;;;26.10;52.50;;;;;;6155616;23;20072;-70
2021/06/06 06:14:41;;;;;;;4.95;3.30;;;26.10;52.80;;;;;;6155573;23;20002;-70
2021/06/06 06:17:07;;;;;;;4.97;4.10;;;26.20;53.40;;;;;;6155316;23;20349;-70
2021/06/06 06:19:33;;;;;;;4.80;3.78;;;26.00;53.30;;;;;;6155556;23;20005;-70
2021/06/06 06:21:58;;;;;;;4.93;3.75;;;26.00;53.50;;;;;;6155209;23;20012;-71
2021/06/06 06:24:24;;;;;;;3.70;3.30;;;26.00;53.80;;;;;;6155502;23;19997;-70
2021/06/06 06:26:51;;;;;;;6.85;3.72;;;26.00;54.00;;;;;;6155107;23;20009;-70
2021/06/06 06:29:17;;;;;;;4.30;3.90;;;25.70;54.30;;;;;;6129920;23;19998;-70
2021/06/06 06:31:43;;;;;;;4.53;3.95;;;25.70;55.40;;;;;;6155590;23;20002;-70
2021/06/06 06:34:08;;;;;;;4.65;4.00;;;25.70;54.50;;;;;;6155559;23;20009;-70
2021/06/06 06:36:34;;;;;;;5.85;3.78;;;25.90;54.40;;;;;;6155395;23;20326;-70
2021/06/06 06:39:00;;;;;;;9.00;4.30;;;25.90;53.50;;;;;;6155451;23;20426;-70
2021/06/06 06:41:28;;;;;;;5.05;3.83;;;25.50;53.50;;;;;;6155206;23;20060;-70
2021/06/06 06:43:54;;;;;;;6.10;4.10;;;24.80;53.80;;;;;;6155104;23;20001;-71
2021/06/06 06:46:21;;;;;;;4.22;3.83;;;24.30;54.40;;;;;;6154835;23;20014;-71
2021/06/06 06:48:47;;;;;;;4.70;4.00;;;23.80;54.70;;;;;;6129237;23;20005;-71
2021/06/06 06:51:14;;;;;;;5.40;3.90;;;23.20;55.90;;;;;;6155035;23;20433;-71
2021/06/06 06:53:40;;;;;;;5.45;3.20;;;22.80;56.20;;;;;;6155064;23;20012;-71
2021/06/06 06:56:06;;;;;;;3.50;3.20;;;22.80;56.50;;;;;;6154902;23;20013;-71
2021/06/06 06:58:32;;;;;;;5.55;3.35;;;22.90;55.90;;;;;;6155515;23;20422;-71
2021/06/06 07:00:58;;;;;;;4.00;3.60;;;22.80;55.40;;;;;;6154785;23;20338;-71
2021/06/06 07:03:28;;;;;;;6.38;3.30;;;22.90;55.40;;;;;;6154991;23;19997;-71
2021/06/06 07:05:55;;;;;;;4.20;3.50;;;22.80;55.00;;;;;;6154759;23;20002;-71
2021/06/06 07:08:26;;;;;;;5.20;3.63;;;22.50;55.60;;;;;;6155412;23;20492;-71
2021/06/06 07:10:52;;;;;;;4.00;3.55;;;22.60;56.10;;;;;;6155104;23;20009;-71
2021/06/06 07:13:19;;;;;;;5.28;3.55;;;22.50;55.70;;;;;;6155299;23;20374;-71
2021/06/06 07:15:45;;;;;;;3.53;3.10;;;22.60;55.70;;;;;;6154905;23;20105;-71
2021/06/06 07:18:17;;;;;;;4.72;3.63;;;22.70;55.60;;;;;;6155160;23;20374;-71
2021/06/06 07:20:43;;;;;;;5.32;3.47;;;22.50;55.20;;;;;;6155378;23;19997;-71
2021/06/06 07:23:11;;;;;;;3.88;3.30;;;22.30;55.50;;;;;;6154761;23;20005;-71
2021/06/06 07:25:39;;;;;;;6.88;3.15;;;22.40;56.00;;;;;;6154932;23;20005;-71
2021/06/06 07:28:07;;;;;;;4.63;3.17;;;22.50;55.60;;;;;;6154517;23;19998;-71
2021/06/06 07:30:55;;;;;;;4.97;3.22;;;22.30;55.40;;;;;;6154877;23;20006;-71
2021/06/06 07:33:28;;;;;;;6.30;3.10;;;22.30;55.40;;;;;;6154794;23;20004;-71
2021/06/06 07:35:55;;;;;;;3.55;2.90;;;22.40;55.10;;;;;;6154475;23;20005;-71
2021/06/06 07:38:23;;;;;;;6.50;3.00;;;22.70;55.20;;;;;;6154838;23;20009;-70
2021/06/06 07:40:51;;;;;;;3.80;2.72;;;22.40;54.10;;;;;;6154725;23;20441;-70
2021/06/06 07:43:17;;;;;;;3.40;2.60;;;22.20;54.60;;;;;;6154733;23;20005;-70
2021/06/06 07:45:43;;;;;;;5.93;2.90;;;22.10;54.30;;;;;;6154399;23;20017;-70
2021/06/06 07:48:10;;;;;;;5.85;2.75;;;21.80;54.60;;;;;;6154716;23;20009;-70
2021/06/06 07:50:39;;;;;;;6.93;2.53;;;21.70;54.70;;;;;;6154700;23;20337;-70
2021/06/06 07:53:06;;;;;;;2.78;2.30;;;21.60;54.30;;;;;;6154280;23;20082;-70
2021/06/06 07:55:32;;;;;;;2.20;1.92;;;21.50;54.70;;;;;;6128366;23;20373;-70
2021/06/06 07:57:58;;;;;;;2.53;2.05;;;21.60;54.50;;;;;;6153963;23;20081;-70
2021/06/06 08:00:32;;;;;;;3.67;2.25;;;21.50;53.90;;;;;;6154446;23;20033;-70
2021/06/06 08:02:58;;;;;;;3.50;2.22;;;21.40;54.00;;;;;;6154347;23;20021;-70
2021/06/06 08:05:24;;;;;;;2.40;2.05;;;21.20;54.10;;;;;;6154385;23;20402;-70
2021/06/06 08:07:51;;;;;;;2.67;2.00;;;21.10;54.50;;;;;;6154684;23;20012;-70
2021/06/06 08:10:18;;;;;;;2.33;2.10;;;21.20;54.60;;;;;;6154179;23;19998;-70
2021/06/06 08:12:44;;;;;;;2.13;1.75;;;21.30;54.40;;;;;;6154288;23;20029;-70
2021/06/06 08:15:12;;;;;;;3.97;2.42;;;21.50;54.40;;;;;;6154464;23;20056;-70
2021/06/06 08:17:39;;;;;;;6.90;1.88;;;21.40;54.00;;;;;;6154272;23;20013;-70
2021/06/06 08:20:09;;;;;;;3.13;2.10;;;21.50;53.90;;;;;;6154183;23;20006;-70
2021/06/06 08:22:35;;;;;;;4.13;1.73;;;21.40;53.70;;;;;;6154223;23;20386;-70
2021/06/06 08:25:02;;;;;;;3.17;2.20;;;21.40;54.10;;;;;;6154446;23;20417;-70
2021/06/06 08:27:27;;;;;;;5.22;1.70;;;21.40;54.00;;;;;;6154600;23;20005;-70
2021/06/06 08:29:54;;;;;;;2.47;1.98;;;21.30;54.10;;;;;;6154322;23;20006;-70
2021/06/06 08:32:19;;;;;;;4.50;1.92;;;21.20;54.20;;;;;;6153831;23;20337;-67
2021/06/06 08:34:45;;;;;;;2.00;1.60;;;21.20;54.90;;;;;;6154396;23;20068;-73
2021/06/06 08:37:11;;;;;;;2.25;1.88;;;21.10;54.70;;;;;;6154202;23;20009;-74
2021/06/06 08:39:37;;;;;;;5.57;1.73;;;21.00;54.70;;;;;;6154473;23;20005;-72
2021/06/06 08:42:26;;;;;;;2.97;1.77;;;21.20;55.20;;;;;;6154202;23;20005;-72
2021/06/06 08:45:22;;;;;;;4.13;2.17;;;21.30;55.40;;;;;;6153420;23;20463;-72
2021/06/06 08:47:49;;;;;;;3.78;1.88;;;21.20;53.90;;;;;;6111973;23;20010;-68
2021/06/06 08:50:22;;;;;;;4.68;1.73;;;21.00;54.10;;;;;;6154244;23;20009;-69
2021/06/06 08:53:12;;;;;;;2.78;1.95;;;20.80;54.60;;;;;;6154208;23;20453;-69
2021/06/06 08:55:58;;;;;;;6.47;2.05;;;20.70;55.00;;;;;;6154254;23;20009;-68
2021/06/06 08:58:44;;;;;;;6.22;1.80;;;20.70;55.40;;;;;;6153967;23;20528;-68
2021/06/06 09:01:23;;;;;;;4.50;2.22;;;20.80;56.80;;;;;;6154389;23;20001;-68
2021/06/06 09:03:50;;;;;;;3.92;1.80;;;21.00;55.40;;;;;;6154579;23;20032;-68
2021/06/06 09:06:30;;;;;;;6.75;2.80;;;21.00;55.00;;;;;;6154453;23;20044;-71
2021/06/06 09:08:56;;;;;;;;;;;20.90;55.30;;;;;;6155617;23;20002;-70
2021/06/06 09:11:24;;;;;;;2.22;2.03;;;20.90;55.60;;;;;;6156718;23;20220;-70
2021/06/06 09:13:49;;;;;;;2.53;1.90;;;20.70;55.50;;;;;;6156300;23;20077;-69
2021/06/06 09:16:25;;;;;;;3.13;1.80;;;20.60;55.50;;;;;;6156013;23;20037;-69
2021/06/06 09:19:05;;;;;;;2.65;2.03;;;20.40;55.90;;;;;;6156408;23;20002;-69
2021/06/06 09:21:31;;;;;;;2.42;1.85;;;20.30;56.20;;;;;;6156118;23;20001;-69
2021/06/06 09:24:32;;;;;;;4.40;2.22;;;20.30;56.00;;;;;;6155803;23;20009;-69
2021/06/06 09:27:23;;;;;;;2.30;1.85;;;20.30;57.20;;;;;;6156493;23;20002;-76
2021/06/06 09:30:07;;;;;;;5.93;2.10;;;20.40;56.80;;;;;;6153334;23;19998;-72
2021/06/06 09:32:33;;;;;;;3.40;2.00;;;20.30;56.90;;;;;;6155593;23;20092;-71
2021/06/06 09:35:06;;;;;;;4.40;1.90;;;20.40;56.90;;;;;;6155678;23;20033;-72
2021/06/06 09:37:35;;;;;;;2.55;1.92;;;20.30;57.40;;;;;;6155774;23;20017;-71
2021/06/06 09:40:11;;;;;;;2.90;2.05;;;20.50;57.70;;;;;;6155439;23;20001;-71
2021/06/06 09:42:46;;;;;;;7.18;2.53;;;20.60;57.30;;;;;;6156111;23;20381;-71
2021/06/06 09:45:46;;;;;;;2.63;2.10;;;20.70;57.10;;;;;;6155420;23;20018;-71
2021/06/06 09:48:23;;;;;;;4.80;2.20;;;20.70;57.40;;;;;;6092006;23;20426;-72
2021/06/06 09:50:50;;;;;;;4.13;1.90;;;20.90;57.20;;;;;;6156154;23;20455;-72
2021/06/06 09:53:30;;;;;;;3.08;1.92;;;20.80;56.60;;;;;;6155508;23;19994;-74
2021/06/06 09:56:12;;;;;;;;;;;20.70;57.10;;;;;;6156515;23;20013;-74
2021/06/06 09:58:39;;;;;;;2.33;1.85;;;20.80;58.60;;;;;;6155731;23;19953;-72
2021/06/06 10:01:26;;;;;;;3.65;2.30;;;20.80;56.80;;;;;;6155534;23;20002;-72
2021/06/06 10:03:53;;;;;;;2.15;1.70;;;20.60;57.50;;;;;;6155444;23;19998;-72
2021/06/06 10:06:40;;;;;;;3.55;2.10;;;20.50;57.10;;;;;;6155383;23;20005;-72
2021/06/06 10:09:08;;;;;;;4.47;2.13;;;20.50;57.70;;;;;;6155282;23;19998;-72
2021/06/06 10:12:17;;;;;;;8.15;2.30;;;20.50;58.10;;;;;;6155477;23;20002;-72
2021/06/06 10:14:53;;;;;;;4.80;2.40;;;20.50;57.80;;;;;;6129654;23;20008;-72
2021/06/06 10:17:32;;;;;;;2.42;1.85;;;20.60;58.00;;;;;;6129119;23;20104;-72
2021/06/06 10:20:30;;;;;;;4.93;1.77;;;20.70;58.20;;;;;;6155291;23;19997;-72
2021/06/06 10:23:02;;;;;;;2.92;2.30;;;20.80;58.10;;;;;;6132344;23;20445;-72
2021/06/06 10:25:41;;;;;;;4.85;2.17;;;20.80;57.90;;;;;;6155505;23;20012;-72
2021/06/06 10:28:08;;;;;;;5.67;2.30;;;20.60;57.90;;;;;;6155727;23;20001;-72
2021/06/06 10:30:44;;;;;;;5.75;2.40;;;20.60;58.40;;;;;;6155542;23;20432;-72
2021/06/06 10:33:15;;;;;;;9.90;2.42;;;20.60;58.60;;;;;;6155423;23;20001;-72
2021/06/06 10:35:41;;;;;;;4.05;2.05;;;20.60;58.70;;;;;;6155504;23;20005;-72
2021/06/06 10:38:08;;;;;;;2.63;2.00;;;20.70;58.90;;;;;;6155586;23;20088;-72
2021/06/06 10:40:39;;;;;;;4.40;2.20;;;20.70;58.50;;;;;;6155396;23;20008;-72
2021/06/06 10:43:31;;;;;;;2.05;1.80;;;20.60;59.10;;;;;;6155434;23;20021;-72
2021/06/06 10:46:13;;;;;;;4.20;1.92;;;20.60;58.90;;;;;;6142330;23;20100;-72
2021/06/06 10:49:09;;;;;;;3.40;2.10;;;20.60;58.90;;;;;;6155322;23;20004;-72
2021/06/06 10:51:39;;;;;;;3.35;2.45;;;20.60;59.10;;;;;;6133736;23;20033;-70
2021/06/06 10:54:33;;;;;;;3.35;1.98;;;20.60;59.30;;;;;;6155022;23;20084;-71
2021/06/06 10:57:07;;;;;;;8.02;1.98;;;20.80;59.20;;;;;;6155150;23;20072;-72
2021/06/06 10:59:39;;;;;;;3.25;1.70;;;20.80;59.20;;;;;;6155224;23;20076;-71
2021/06/06 11:02:10;;;;;;;2.33;2.10;;;20.90;59.20;;;;;;6154914;23;20006;-71
2021/06/06 11:04:50;;;;;;;3.85;1.90;;;20.90;59.00;;;;;;6155298;23;20060;-71
2021/06/06 11:07:16;;;;;;;3.42;2.45;;;20.80;59.30;;;;;;6154841;23;20484;-72
2021/06/06 11:09:41;;;;;;;3.33;1.95;;;21.00;60.20;;;;;;6154921;23;20005;-72
2021/06/06 11:12:12;;;;;;;5.20;2.05;;;21.00;59.30;;;;;;6154742;23;20002;-71
2021/06/06 11:14:49;;;;;;;2.88;2.03;;;21.10;59.10;;;;;;6154901;23;20025;-71
2021/06/06 11:17:34;;;;;;;6.07;2.42;;;21.10;59.30;;;;;;6154637;23;20018;-71
2021/06/06 11:20:23;;;;;;;5.68;2.03;;;21.20;58.80;;;;;;6154599;23;20006;-71
2021/06/06 11:22:50;;;;;;;4.00;2.33;;;20.90;58.90;;;;;;6154846;23;20006;-71
2021/06/06 11:25:40;;;;;;;2.20;2.00;;;20.80;59.40;;;;;;6154474;23;20032;-71
2021/06/06 11:28:24;;;;;;;3.47;1.70;;;20.80;59.70;;;;;;6154728;23;20377;-72
2021/06/06 11:30:52;;;;;;;2.30;1.65;;;20.80;59.40;;;;;;6154776;23;20021;-73
2021/06/06 11:33:46;;;;;;;3.65;2.35;;;20.80;59.30;;;;;;6153874;23;19997;-73
2021/06/06 11:36:12;;;;;;;3.97;1.98;;;20.70;59.70;;;;;;6154339;23;20040;-72
2021/06/06 11:38:47;;;;;;;2.45;2.20;;;20.50;59.60;;;;;;6154648;23;20366;-72
2021/06/06 11:41:35;;;;;;;3.67;2.00;;;20.50;60.00;;;;;;6154418;23;20006;-73
2021/06/06 11:44:01;;;;;;;2.63;2.15;;;20.50;61.20;;;;;;6154377;23;20002;-72
2021/06/06 11:46:33;;;;;;;3.85;2.35;;;20.60;61.00;;;;;;6154338;23;20024;-73
2021/06/06 11:49:21;;;;;;;3.50;1.90;;;20.60;60.70;;;;;;6154558;23;20442;-72
2021/06/06 11:51:49;;;;;;;5.05;2.40;;;20.70;61.00;;;;;;6154886;23;20006;-73
2021/06/06 11:54:34;;;;;;;12.18;2.65;;;20.60;61.00;;;;;;6154701;23;20057;-73
2021/06/06 11:57:11;;;;;;;4.57;2.25;;;20.60;60.80;;;;;;6154849;23;20021;-72
2021/06/06 12:00:03;;;;;;;2.40;2.03;;;20.50;61.20;;;;;;6154996;23;20409;-73
2021/06/06 12:02:32;;;;;;;2.70;2.08;;;20.40;61.40;;;;;;6154371;23;20002;-73
2021/06/06 12:05:09;;;;;;;5.20;2.50;;;20.40;61.60;;;;;;6154763;23;19998;-72
2021/06/06 12:07:35;;;;;;;4.10;2.13;;;20.30;61.60;;;;;;6154326;23;20413;-74
2021/06/06 12:10:03;;;;;;;2.78;2.00;;;20.30;61.70;;;;;;6154597;23;20334;-71
2021/06/06 12:12:33;;;;;;;3.05;1.80;;;20.30;61.60;;;;;;6154207;23;20434;-71
2021/06/06 12:15:00;;;;;;;;;;;20.20;61.70;;;;;;6154991;23;20076;-72
2021/06/06 12:17:25;;;;;;;3.22;1.73;;;20.30;62.30;;;;;;6154108;23;20325;-72
2021/06/06 12:19:59;;;;;;;3.97;1.75;;;20.30;61.60;;;;;;6154476;23;20076;-72
2021/06/06 12:22:33;;;;;;;9.90;2.60;;;20.40;61.50;;;;;;6154173;23;20346;-71
2021/06/06 12:25:24;;;;;;;2.47;1.65;;;20.40;61.30;;;;;;6154680;23;20001;-71
2021/06/06 12:28:16;;;;;;;2.42;1.42;;;20.40;61.20;;;;;;6154172;23;20035;-71
2021/06/06 12:31:02;;;;;;;2.33;1.83;;;20.40;62.10;;;;;;6141559;23;20055;-73
2021/06/06 12:33:33;;;;;;;7.07;1.95;;;20.50;61.00;;;;;;6154111;23;20468;-72
2021/06/06 12:36:07;;;;;;;2.03;1.50;;;20.50;60.30;;;;;;6154209;23;20060;-72
2021/06/06 12:38:34;;;;;;;5.40;2.20;;;20.40;60.40;;;;;;6154330;23;20423;-72
2021/06/06 12:41:03;;;;;;;2.42;1.60;;;20.50;60.80;;;;;;6154595;23;20005;-73
2021/06/06 12:43:30;;;;;;;6.45;2.35;;;20.50;60.30;;;;;;6154291;23;20009;-73
2021/06/06 12:46:03;;;;;;;19.48;3.35;;;20.50;61.60;;;;;;6155784;23;20072;-73
2021/06/06 12:48:29;;;;;;;9.73;1.98;;;20.60;60.10;;;;;;6130057;23;20033;-73
2021/06/06 12:50:57;;;;;;;2.30;1.80;;;20.50;59.90;;;;;;6156408;23;20002;-73
2021/06/06 12:53:25;;;;;;;3.50;1.85;;;20.40;60.40;;;;;;6156236;23;20016;-73
2021/06/06 12:55:52;;;;;;;2.72;1.75;;;20.40;60.80;;;;;;6156379;23;20085;-74
2021/06/06 12:58:18;;;;;;;3.35;1.67;;;20.40;60.20;;;;;;6155997;23;20438;-75
2021/06/06 13:00:50;;;;;;;3.63;1.70;;;20.40;59.90;;;;;;6156121;23;20005;-76
2021/06/06 13:03:18;;;;;;;2.67;2.00;;;20.40;59.90;;;;;;6156276;23;20005;-76
2021/06/06 13:05:47;;;;;;;3.20;1.83;;;20.40;60.10;;;;;;6156111;23;20060;-76
2021/06/06 13:08:37;;;;;;;3.27;2.00;;;20.40;59.70;;;;;;6156214;23;20029;-76
2021/06/06 13:11:05;;;;;;;4.50;2.17;;;20.40;59.70;;;;;;6156147;23;20009;-75
2021/06/06 13:13:37;;;;;;;7.30;1.88;;;20.40;60.50;;;;;;6155648;23;20541;-76
2021/06/06 13:16:19;;;;;;;4.18;1.90;;;20.40;60.50;;;;;;6156006;23;20017;-75
2021/06/06 13:19:14;;;;;;;2.20;2.00;;;20.50;59.70;;;;;;6155988;23;20350;-76
2021/06/06 13:21:47;;;;;;;2.90;1.90;;;20.50;60.10;;;;;;6130781;23;20089;-72
2021/06/06 13:24:27;;;;;;;2.60;1.90;;;20.50;59.80;;;;;;6155710;23;19994;-72
2021/06/06 13:26:56;;;;;;;3.22;1.80;;;20.40;60.30;;;;;;6156093;23;20429;-72
2021/06/06 13:29:40;;;;;;;4.87;1.87;;;20.50;60.30;;;;;;6155892;23;20005;-72
2021/06/06 13:32:31;;;;;;;1.48;1.38;;;20.40;60.20;;;;;;6155785;23;20724;-72
2021/06/06 13:35:03;;;;;;;4.38;1.85;;;20.50;60.00;;;;;;6141758;23;20006;-72
2021/06/06 13:37:32;;;;;;;6.22;2.45;;;20.50;60.70;;;;;;6155642;23;20470;-72
2021/06/06 13:40:14;;;;;;;6.45;2.30;;;20.50;59.80;;;;;;6155961;23;20002;-72
2021/06/06 13:42:40;;;;;;;6.78;1.88;;;20.50;59.60;;;;;;6155774;23;20548;-72
2021/06/06 13:45:07;;;;;;;4.18;2.13;;;20.60;59.80;;;;;;6155558;23;20009;-72